Time;durP1;ratioP1;P1;durP2;ratioP2;P2;SDS_P1;SDS_P2;PMS_P1;PMS_P2;Temp;Humidity;BMP_temperature;BMP_pressure;BME280_temperature;BME280_humidity;BME280_pressure;Samples;Min_cycle;Max_cycle;Signal;HPM_P1;HPM_P2
2022/11/24 00:01:20;;;;;;;20.90;18.42;;;6.40;99.90;;;;;;4976820;28;20152;-76
2022/11/24 00:03:59;;;;;;;22.60;17.45;;;6.50;99.90;;;;;;4965341;28;20053;-76
2022/11/24 00:06:26;;;;;;;22.70;17.52;;;6.60;99.90;;;;;;4973081;28;20077;-76
2022/11/24 00:08:55;;;;;;;23.20;18.50;;;6.60;99.90;;;;;;4985602;28;20058;-77
2022/11/24 00:11:24;;;;;;;22.40;18.60;;;6.60;99.90;;;;;;4980822;28;20048;-77
2022/11/24 00:13:51;;;;;;;24.90;19.25;;;6.60;99.90;;;;;;4967760;28;20046;-78
2022/11/24 00:16:21;;;;;;;21.52;19.30;;;6.70;99.90;;;;;;4964339;28;20041;-77
2022/11/24 00:18:50;;;;;;;20.20;18.05;;;6.70;99.90;;;;;;4981533;28;20034;-77
2022/11/24 00:21:18;;;;;;;29.52;19.83;;;6.70;99.90;;;;;;4979737;28;20522;-77
2022/11/24 00:23:45;;;;;;;22.77;20.05;;;6.70;99.90;;;;;;4980084;28;20045;-77
2022/11/24 00:26:20;;;;;;;26.30;18.92;;;6.60;99.90;;;;;;4960031;28;20038;-76
2022/11/24 00:28:48;;;;;;;26.02;19.17;;;6.60;99.90;;;;;;4961810;28;20042;-77
2022/11/24 00:31:22;;;;;;;28.17;19.00;;;6.60;99.90;;;;;;4945433;28;20042;-77
2022/11/24 00:33:51;;;;;;;30.70;18.25;;;6.60;99.90;;;;;;4963346;28;20046;-78
2022/11/24 00:36:19;;;;;;;28.52;18.38;;;6.50;99.90;;;;;;4945223;28;20054;-77
2022/11/24 00:38:46;;;;;;;34.65;17.85;;;6.50;99.90;;;;;;4983241;28;20049;-77
2022/11/24 00:41:13;;;;;;;21.63;17.60;;;6.50;99.90;;;;;;4978794;28;20054;-77
2022/11/24 00:43:40;;;;;;;25.73;17.02;;;6.40;99.90;;;;;;4987989;28;20039;-77
2022/11/24 00:46:13;;;;;;;30.08;18.33;;;6.40;99.90;;;;;;4961835;28;20069;-77
2022/11/24 00:48:40;;;;;;;30.17;17.23;;;6.40;99.90;;;;;;4966043;28;20514;-77
2022/11/24 00:51:09;;;;;;;30.05;18.33;;;6.40;99.90;;;;;;4984964;28;20046;-77
2022/11/24 00:53:36;;;;;;;26.48;17.95;;;6.40;99.90;;;;;;4981249;28;20048;-78
2022/11/24 00:56:03;;;;;;;25.17;17.25;;;6.40;99.90;;;;;;4962576;28;20050;-76
2022/11/24 00:58:31;;;;;;;32.85;18.13;;;6.40;99.90;;;;;;4965379;28;20086;-76
2022/11/24 01:01:11;;;;;;;28.70;16.80;;;6.40;99.90;;;;;;4960879;28;20053;-76
2022/11/24 01:03:39;;;;;;;21.80;15.32;;;6.50;99.90;;;;;;4969580;28;20046;-76
2022/11/24 01:06:11;;;;;;;28.63;16.30;;;6.60;99.90;;;;;;4981451;28;20050;-76
2022/11/24 01:08:39;;;;;;;33.17;15.65;;;6.70;99.90;;;;;;4977970;28;20065;-76
2022/11/24 01:11:16;;;;;;;28.10;16.13;;;6.80;99.90;;;;;;4963522;28;20433;-76
2022/11/24 01:13:45;;;;;;;33.70;15.65;;;6.90;99.90;;;;;;4982004;28;20056;-76
2022/11/24 01:16:17;;;;;;;32.25;15.98;;;7.00;99.90;;;;;;4983330;28;20801;-76
2022/11/24 01:18:45;;;;;;;28.67;16.52;;;7.00;99.90;;;;;;4968848;28;20046;-76
2022/11/24 01:21:12;;;;;;;31.80;16.52;;;7.00;99.90;;;;;;4978594;28;20034;-76
2022/11/24 01:23:39;;;;;;;25.20;17.27;;;7.10;99.90;;;;;;4988040;28;20042;-76
2022/11/24 01:26:09;;;;;;;33.67;16.80;;;7.10;99.90;;;;;;4962289;28;20403;-75
2022/11/24 01:28:36;;;;;;;32.45;17.60;;;7.10;99.90;;;;;;4967839;28;20523;-76
2022/11/24 01:31:08;;;;;;;30.35;17.45;;;7.10;99.90;;;;;;4962460;28;20038;-76
2022/11/24 01:33:36;;;;;;;23.05;16.17;;;7.20;99.90;;;;;;4978774;28;20050;-75
2022/11/24 01:36:04;;;;;;;26.60;16.27;;;7.30;99.90;;;;;;4962865;28;20112;-76
2022/11/24 01:38:31;;;;;;;29.13;17.42;;;7.40;99.90;;;;;;4947911;28;20050;-76
2022/11/24 01:41:08;;;;;;;24.38;16.88;;;7.40;99.90;;;;;;4962008;28;20038;-76
2022/11/24 01:43:35;;;;;;;31.98;17.10;;;7.40;99.90;;;;;;4964756;28;20061;-76
2022/11/24 01:46:42;;;;;;;38.70;17.33;;;7.50;99.90;;;;;;4963626;28;20416;-76
2022/11/24 01:49:28;;;;;;;23.77;16.17;;;7.50;99.90;;;;;;4923149;28;20050;-76
2022/11/24 01:52:11;;;;;;;28.45;17.23;;;7.40;99.90;;;;;;4937280;28;20303;-76
2022/11/24 01:54:43;;;;;;;26.05;16.58;;;7.40;99.90;;;;;;4964358;28;20043;-75
2022/11/24 01:57:24;;;;;;;28.60;16.83;;;7.40;99.90;;;;;;4964130;28;20738;-76
2022/11/24 01:59:56;;;;;;;28.67;15.57;;;7.50;99.90;;;;;;4979210;28;20420;-76
2022/11/24 02:02:27;;;;;;;33.15;16.08;;;7.50;99.90;;;;;;4976278;28;20043;-76
2022/11/24 02:04:57;;;;;;;22.73;16.90;;;7.50;99.90;;;;;;4986950;28;20560;-75
2022/11/24 02:07:25;;;;;;;26.77;15.90;;;7.60;99.90;;;;;;4975806;28;20043;-77
2022/11/24 02:09:56;;;;;;;33.45;15.25;;;7.60;99.90;;;;;;4960251;28;20288;-75
2022/11/24 02:12:25;;;;;;;29.58;16.48;;;7.60;99.90;;;;;;4962461;28;20045;-76
2022/11/24 02:14:53;;;;;;;27.27;17.65;;;7.60;99.90;;;;;;4968169;28;20065;-76
2022/11/24 02:17:23;;;;;;;27.38;16.42;;;7.70;99.90;;;;;;4951476;28;20587;-76
2022/11/24 02:20:03;;;;;;;28.90;15.93;;;7.60;99.90;;;;;;4965952;28;20053;-76
2022/11/24 02:22:56;;;;;;;25.75;16.05;;;7.70;99.90;;;;;;4986883;28;20285;-76
2022/11/24 02:25:44;;;;;;;27.88;16.50;;;7.70;99.90;;;;;;4979956;28;20054;-75
2022/11/24 02:28:18;;;;;;;32.00;16.20;;;7.60;99.90;;;;;;4965227;28;20054;-76
2022/11/24 02:30:45;;;;;;;29.23;15.90;;;7.70;99.90;;;;;;4962906;28;20046;-76
2022/11/24 02:33:12;;;;;;;22.63;15.50;;;7.60;99.90;;;;;;4978133;28;20050;-75
2022/11/24 02:35:39;;;;;;;31.08;15.77;;;7.60;99.90;;;;;;4970228;28;20388;-76
2022/11/24 02:38:09;;;;;;;23.73;15.57;;;7.50;99.90;;;;;;4965861;28;20515;-75
2022/11/24 02:40:36;;;;;;;36.30;16.50;;;7.40;99.90;;;;;;4983436;28;20052;-75
2022/11/24 02:43:08;;;;;;;26.67;15.68;;;7.40;99.90;;;;;;4967724;28;20145;-76
2022/11/24 02:45:35;;;;;;;48.80;17.65;;;7.30;99.90;;;;;;4950079;28;20132;-77
2022/11/24 02:48:01;;;;;;;25.52;16.10;;;7.30;99.90;;;;;;4966004;28;20050;-77
2022/11/24 02:50:29;;;;;;;35.95;16.92;;;7.30;99.90;;;;;;4985040;28;20318;-77
2022/11/24 02:52:56;;;;;;;17.02;15.18;;;7.30;99.90;;;;;;4967097;28;20053;-76
2022/11/24 02:55:22;;;;;;;30.95;17.15;;;7.40;99.90;;;;;;4963566;28;20065;-77
2022/11/24 02:57:49;;;;;;;33.55;17.30;;;7.30;99.90;;;;;;4986490;28;20042;-77
2022/11/24 03:00:17;;;;;;;25.52;16.63;;;7.30;99.90;;;;;;4977531;28;20173;-77
2022/11/24 03:02:44;;;;;;;29.13;17.40;;;7.30;99.90;;;;;;4949592;28;20141;-76
2022/11/24 03:05:11;;;;;;;34.42;16.25;;;7.40;99.90;;;;;;4964554;28;20039;-77
2022/11/24 03:07:38;;;;;;;30.00;15.93;;;7.40;99.90;;;;;;4962420;28;20038;-76
2022/11/24 03:10:05;;;;;;;29.20;16.40;;;7.40;99.90;;;;;;4965880;28;20042;-77
2022/11/24 03:12:32;;;;;;;30.90;15.52;;;7.40;99.90;;;;;;4967654;28;20053;-77
2022/11/24 03:14:58;;;;;;;34.75;18.88;;;7.50;99.90;;;;;;4964747;28;20512;-76
2022/11/24 03:17:25;;;;;;;30.10;19.65;;;7.50;99.90;;;;;;4983763;28;20046;-77
2022/11/24 03:19:52;;;;;;;29.67;16.40;;;7.50;99.90;;;;;;4986484;28;20042;-76
2022/11/24 03:22:18;;;;;;;32.63;18.30;;;7.60;99.90;;;;;;4985432;28;20034;-77
2022/11/24 03:24:45;;;;;;;28.80;17.15;;;7.60;99.90;;;;;;4988247;28;20046;-77
2022/11/24 03:27:12;;;;;;;31.52;17.00;;;7.60;99.90;;;;;;4961946;28;20447;-76
2022/11/24 03:29:39;;;;;;;25.63;18.10;;;7.60;99.90;;;;;;4949159;28;20731;-76
2022/11/24 03:32:08;;;;;;;23.38;16.73;;;7.60;99.90;;;;;;4945654;28;20042;-76
2022/11/24 03:34:35;;;;;;;26.63;17.80;;;7.60;99.90;;;;;;4983034;28;20049;-77
2022/11/24 03:37:02;;;;;;;24.15;18.38;;;7.60;99.90;;;;;;4982584;28;20100;-76
2022/11/24 03:39:28;;;;;;;27.88;17.60;;;7.60;99.90;;;;;;4982725;28;20049;-77
2022/11/24 03:41:55;;;;;;;20.75;16.50;;;7.60;99.90;;;;;;4965561;28;20042;-76
2022/11/24 03:44:22;;;;;;;24.65;17.83;;;7.60;99.90;;;;;;4948133;28;20070;-76
2022/11/24 03:46:50;;;;;;;38.35;17.77;;;7.50;99.90;;;;;;4964970;28;20034;-77
2022/11/24 03:49:17;;;;;;;29.33;17.15;;;7.50;99.90;;;;;;4963596;28;20500;-77
2022/11/24 03:51:44;;;;;;;24.42;16.15;;;7.50;99.90;;;;;;4964820;28;20053;-77
2022/11/24 03:54:11;;;;;;;23.95;16.98;;;7.40;99.90;;;;;;4961116;28;20073;-77
2022/11/24 03:56:38;;;;;;;32.03;16.00;;;7.40;99.90;;;;;;4964068;28;20408;-76
2022/11/24 03:59:04;;;;;;;33.10;17.80;;;7.40;99.90;;;;;;4965091;28;20332;-76
2022/11/24 04:01:31;;;;;;;25.20;15.95;;;7.40;99.90;;;;;;4976539;28;20039;-76
2022/11/24 04:03:58;;;;;;;25.42;17.45;;;7.40;99.90;;;;;;4982219;28;20046;-75
2022/11/24 04:06:24;;;;;;;21.23;15.30;;;7.40;99.90;;;;;;4977785;28;20142;-76
2022/11/24 04:08:51;;;;;;;32.90;18.10;;;7.40;99.90;;;;;;4969624;28;20050;-75
2022/11/24 04:14:03;;;;;;;31.85;17.10;;;7.40;99.90;;;;;;4982492;28;20403;-76
2022/11/24 04:16:36;;;;;;;26.70;17.50;;;7.50;99.90;;;;;;4964078;28;20073;-76
2022/11/24 04:19:02;;;;;;;25.70;16.58;;;7.50;99.90;;;;;;4965387;28;20489;-76
2022/11/24 04:21:29;;;;;;;27.15;17.60;;;7.50;99.90;;;;;;4977860;28;20042;-76
2022/11/24 04:23:56;;;;;;;25.73;18.20;;;7.60;99.90;;;;;;4964314;28;20676;-76
2022/11/24 04:26:23;;;;;;;32.25;20.75;;;7.60;99.90;;;;;;4980513;28;20042;-76
2022/11/24 04:28:49;;;;;;;36.67;18.55;;;7.60;99.90;;;;;;4980465;28;20459;-76
2022/11/24 04:31:17;;;;;;;30.23;23.63;;;7.60;99.90;;;;;;4957873;28;20051;-76
2022/11/24 04:33:44;;;;;;;25.95;18.80;;;7.60;99.90;;;;;;4965136;28;20105;-76
2022/11/24 04:36:10;;;;;;;25.60;18.52;;;7.60;99.90;;;;;;4980047;28;20039;-77
2022/11/24 04:38:37;;;;;;;25.38;18.25;;;7.60;99.90;;;;;;4977002;28;20303;-76
2022/11/24 04:41:24;;;;;;;32.58;20.35;;;7.70;99.90;;;;;;4953672;28;20064;-77
2022/11/24 04:43:51;;;;;;;25.83;19.23;;;7.70;99.90;;;;;;4960914;28;20144;-77
2022/11/24 04:46:17;;;;;;;27.08;18.23;;;7.70;99.90;;;;;;4961435;28;20046;-76
2022/11/24 04:48:44;;;;;;;27.08;19.02;;;7.80;99.90;;;;;;4978065;28;20039;-76
2022/11/24 04:51:13;;;;;;;28.33;18.45;;;7.80;99.90;;;;;;4962235;28;20411;-77
2022/11/24 04:53:40;;;;;;;24.75;17.80;;;7.70;99.90;;;;;;4975091;28;20484;-77
2022/11/24 04:56:07;;;;;;;34.03;18.15;;;7.80;99.90;;;;;;4957739;28;20055;-76
2022/11/24 04:58:34;;;;;;;21.38;18.00;;;7.80;99.90;;;;;;4983414;28;20061;-77
2022/11/24 05:01:04;;;;;;;25.58;18.80;;;7.80;99.90;;;;;;4959607;28;20053;-77
2022/11/24 05:03:31;;;;;;;26.05;17.70;;;7.80;99.90;;;;;;4973220;28;20050;-76
2022/11/24 05:05:58;;;;;;;26.42;17.70;;;7.80;99.90;;;;;;4961918;28;20074;-77
2022/11/24 05:08:25;;;;;;;30.23;17.75;;;7.70;99.90;;;;;;4959482;28;20034;-77
2022/11/24 05:10:52;;;;;;;33.63;19.75;;;7.70;99.90;;;;;;4976216;28;20546;-77
2022/11/24 05:13:19;;;;;;;25.45;18.25;;;7.80;99.90;;;;;;4964143;28;20049;-77
2022/11/24 05:15:45;;;;;;;31.45;18.85;;;7.80;99.90;;;;;;4962833;28;20047;-77
2022/11/24 05:18:16;;;;;;;41.30;20.38;;;7.80;99.90;;;;;;4959898;28;20205;-77
2022/11/24 05:20:46;;;;;;;24.42;18.00;;;7.80;99.90;;;;;;4975817;28;20054;-77
2022/11/24 05:23:13;;;;;;;27.55;19.30;;;7.90;99.90;;;;;;4953961;28;20057;-76
2022/11/24 05:25:40;;;;;;;22.70;18.55;;;7.90;99.90;;;;;;4957529;28;20539;-79
2022/11/24 05:28:13;;;;;;;31.23;19.05;;;7.90;99.90;;;;;;4978319;28;20042;-77
2022/11/24 05:30:41;;;;;;;24.73;18.67;;;7.90;99.90;;;;;;4974444;28;20575;-76
2022/11/24 05:33:11;;;;;;;29.67;20.67;;;7.90;99.90;;;;;;4961582;28;20061;-76
2022/11/24 05:35:38;;;;;;;24.88;19.45;;;7.90;99.90;;;;;;4976958;28;20045;-77
2022/11/24 05:38:05;;;;;;;29.98;19.75;;;7.90;99.90;;;;;;4962958;28;20120;-78
2022/11/24 05:40:32;;;;;;;27.48;19.27;;;7.90;99.90;;;;;;4978049;28;20038;-78
2022/11/24 05:42:58;;;;;;;27.95;19.58;;;7.90;99.90;;;;;;4980375;28;20046;-78
2022/11/24 05:45:25;;;;;;;30.02;18.80;;;7.90;99.90;;;;;;4949881;28;20046;-76
2022/11/24 05:47:52;;;;;;;31.88;20.25;;;8.00;99.90;;;;;;4977829;28;20049;-76
2022/11/24 05:50:21;;;;;;;25.83;19.60;;;8.00;99.90;;;;;;4948822;28;20400;-76
2022/11/24 05:52:48;;;;;;;27.88;19.33;;;8.00;99.90;;;;;;4977949;28;20356;-77
2022/11/24 05:55:18;;;;;;;22.92;19.17;;;7.90;99.90;;;;;;4959475;28;20042;-77
2022/11/24 05:57:45;;;;;;;29.50;18.83;;;7.90;99.90;;;;;;4971309;28;20082;-77
2022/11/24 06:00:17;;;;;;;33.88;18.45;;;7.80;99.90;;;;;;4982981;28;20108;-77
2022/11/24 06:02:43;;;;;;;34.58;19.20;;;7.80;99.90;;;;;;4965620;28;20042;-76
2022/11/24 06:05:10;;;;;;;26.52;18.30;;;7.80;99.90;;;;;;4965999;28;20056;-77
2022/11/24 06:07:37;;;;;;;28.95;18.75;;;7.80;99.90;;;;;;4970467;28;20054;-77
2022/11/24 06:10:04;;;;;;;27.23;19.58;;;7.80;99.90;;;;;;4984600;28;20057;-76
2022/11/24 06:12:31;;;;;;;30.23;19.35;;;7.80;99.90;;;;;;4967229;28;20488;-76
2022/11/24 06:14:57;;;;;;;29.13;19.38;;;7.80;99.90;;;;;;4960851;28;20149;-75
2022/11/24 06:17:24;;;;;;;25.20;18.98;;;7.80;99.90;;;;;;4977809;28;20046;-76
2022/11/24 06:19:50;;;;;;;33.08;19.98;;;7.80;99.90;;;;;;4972687;28;20508;-76
2022/11/24 06:22:18;;;;;;;27.35;19.33;;;7.90;99.90;;;;;;4973728;28;20167;-76
2022/11/24 06:24:45;;;;;;;28.75;19.55;;;7.90;99.90;;;;;;4963368;28;20053;-77
2022/11/24 06:27:13;;;;;;;32.15;20.15;;;7.90;99.90;;;;;;4959839;28;20635;-77
2022/11/24 06:29:40;;;;;;;29.73;19.70;;;7.90;99.90;;;;;;4961247;28;20038;-76
2022/11/24 06:32:07;;;;;;;26.58;19.00;;;7.90;99.90;;;;;;4977645;28;20039;-77
2022/11/24 06:34:34;;;;;;;31.73;19.00;;;7.90;99.90;;;;;;4972633;28;20050;-77
2022/11/24 06:37:01;;;;;;;33.17;19.52;;;7.90;99.90;;;;;;4960621;28;20527;-77
2022/11/24 06:39:28;;;;;;;23.83;18.05;;;7.90;99.90;;;;;;4959941;28;20065;-77
2022/11/24 06:41:54;;;;;;;26.00;17.35;;;7.80;99.90;;;;;;4961018;28;20411;-77
2022/11/24 06:44:22;;;;;;;30.30;17.17;;;7.80;99.90;;;;;;4975304;28;20047;-77
2022/11/24 06:46:48;;;;;;;31.45;16.65;;;7.80;99.90;;;;;;4974225;28;20042;-77
2022/11/24 06:49:15;;;;;;;30.67;18.27;;;7.70;99.90;;;;;;4978393;28;20050;-77
2022/11/24 06:51:44;;;;;;;30.75;16.60;;;7.70;99.90;;;;;;4960672;28;20046;-77
2022/11/24 06:54:16;;;;;;;33.05;16.88;;;7.70;99.90;;;;;;4961617;28;20038;-79
2022/11/24 06:56:43;;;;;;;25.13;16.20;;;7.70;99.90;;;;;;4976576;28;20042;-78
2022/11/24 06:59:16;;;;;;;27.50;16.55;;;7.70;99.90;;;;;;4977903;28;20038;-77
2022/11/24 07:01:43;;;;;;;25.40;16.02;;;7.60;99.90;;;;;;4978172;28;20039;-77
2022/11/24 07:04:10;;;;;;;29.17;16.73;;;7.70;99.90;;;;;;4948426;28;20052;-77
2022/11/24 07:06:38;;;;;;;24.20;15.63;;;7.70;99.90;;;;;;4966427;28;20162;-77
2022/11/24 07:09:05;;;;;;;24.50;16.40;;;7.70;99.90;;;;;;4980988;28;20050;-77
2022/11/24 07:11:32;;;;;;;23.30;15.98;;;7.60;99.90;;;;;;4948863;28;20042;-78
2022/11/24 07:13:59;;;;;;;21.27;16.20;;;7.60;99.90;;;;;;4966290;28;20039;-78
2022/11/24 07:16:26;;;;;;;31.98;17.05;;;7.60;99.90;;;;;;4964134;28;20054;-77
2022/11/24 07:18:54;;;;;;;20.75;16.30;;;7.60;99.90;;;;;;4985964;28;20069;-77
2022/11/24 07:21:22;;;;;;;26.38;17.23;;;7.50;99.90;;;;;;4983185;28;20508;-77
2022/11/24 07:23:54;;;;;;;26.75;16.80;;;7.50;99.90;;;;;;4987362;28;20045;-77
2022/11/24 07:26:22;;;;;;;26.60;16.23;;;7.50;99.90;;;;;;4965564;28;20048;-77
2022/11/24 07:28:50;;;;;;;24.25;16.20;;;7.40;99.90;;;;;;4980738;28;20053;-77
2022/11/24 07:31:19;;;;;;;34.97;17.63;;;7.40;99.90;;;;;;4983644;28;20042;-77
2022/11/24 07:33:51;;;;;;;34.53;17.33;;;7.40;99.90;;;;;;4966142;28;20498;-77
2022/11/24 07:36:18;;;;;;;31.35;18.17;;;7.40;99.90;;;;;;4978444;28;20136;-77
2022/11/24 07:38:45;;;;;;;27.95;16.38;;;7.40;99.90;;;;;;4984361;28;20491;-77
2022/11/24 07:41:13;;;;;;;29.35;15.65;;;7.50;99.90;;;;;;4965408;28;20042;-78
2022/11/24 07:43:40;;;;;;;27.52;15.52;;;7.50;99.90;;;;;;4950865;28;20322;-77
2022/11/24 07:46:10;;;;;;;30.90;15.40;;;7.50;99.90;;;;;;4962790;28;20053;-76
2022/11/24 07:48:37;;;;;;;29.17;15.55;;;7.50;99.90;;;;;;4963975;28;20046;-78
2022/11/24 07:51:05;;;;;;;24.23;14.95;;;7.50;99.90;;;;;;4964196;28;20070;-77
2022/11/24 07:53:33;;;;;;;21.38;15.75;;;7.50;99.90;;;;;;4964831;28;20504;-77
2022/11/24 07:56:01;;;;;;;27.02;15.57;;;7.50;99.90;;;;;;4982492;28;20038;-77
2022/11/24 07:58:30;;;;;;;32.55;15.18;;;7.60;99.90;;;;;;4979904;28;20129;-77
2022/11/24 08:00:59;;;;;;;24.73;16.15;;;7.50;99.90;;;;;;4936006;28;20367;-77
2022/11/24 08:03:28;;;;;;;30.17;16.80;;;7.60;99.90;;;;;;4970331;28;20129;-77
2022/11/24 08:05:59;;;;;;;35.42;17.30;;;7.60;99.90;;;;;;4963080;28;20038;-77
2022/11/24 08:08:46;;;;;;;27.70;16.63;;;7.60;99.90;;;;;;4966393;28;20042;-77
2022/11/24 08:11:15;;;;;;;30.17;16.40;;;7.60;99.90;;;;;;4982451;28;20328;-77
2022/11/24 08:13:42;;;;;;;23.60;17.17;;;7.60;99.90;;;;;;4963886;28;20066;-77
2022/11/24 08:16:13;;;;;;;30.88;17.20;;;7.60;99.90;;;;;;4979491;28;20043;-76
2022/11/24 08:18:41;;;;;;;24.95;14.90;;;7.60;99.90;;;;;;4963140;28;20038;-77
2022/11/24 08:21:13;;;;;;;30.15;16.95;;;7.50;99.90;;;;;;4963834;28;20128;-77
2022/11/24 08:23:40;;;;;;;29.15;17.70;;;7.50;99.90;;;;;;4968788;28;20137;-77
2022/11/24 08:26:10;;;;;;;27.00;17.38;;;7.60;99.90;;;;;;4964911;28;20047;-77
2022/11/24 08:28:37;;;;;;;24.23;17.52;;;7.60;99.90;;;;;;4983093;28;20038;-77
2022/11/24 08:31:25;;;;;;;33.60;24.17;;;7.60;99.90;;;;;;4962582;28;20043;-77
2022/11/24 08:33:55;;;;;;;30.70;24.30;;;7.70;99.90;;;;;;4962238;28;20045;-77
2022/11/24 08:36:21;;;;;;;37.30;21.52;;;7.70;99.90;;;;;;4976055;28;20120;-77
2022/11/24 08:38:55;;;;;;;22.73;19.40;;;7.70;99.90;;;;;;4961274;28;20047;-77
2022/11/24 08:41:22;;;;;;;30.73;19.35;;;7.70;99.90;;;;;;4980821;28;20129;-77
2022/11/24 08:43:49;;;;;;;25.00;19.83;;;7.70;99.90;;;;;;4967507;28;20050;-77
2022/11/24 08:46:17;;;;;;;35.00;20.80;;;7.80;99.90;;;;;;4980487;28;20072;-76
2022/11/24 08:48:51;;;;;;;31.98;20.77;;;7.70;99.90;;;;;;4966366;28;20138;-76
2022/11/24 08:51:20;;;;;;;33.67;20.45;;;7.70;99.90;;;;;;4963507;28;20045;-77
2022/11/24 08:53:47;;;;;;;39.92;23.55;;;7.70;99.90;;;;;;4984050;28;20050;-76
2022/11/24 08:56:14;;;;;;;27.02;20.08;;;7.80;99.90;;;;;;4976808;28;20129;-76
2022/11/24 08:58:41;;;;;;;25.92;18.70;;;7.80;99.90;;;;;;4984507;28;20195;-76
2022/11/24 09:01:14;;;;;;;21.00;18.80;;;7.80;99.90;;;;;;4963722;28;20256;-76
2022/11/24 09:03:41;;;;;;;28.30;20.80;;;7.80;99.90;;;;;;4976026;28;20046;-76
2022/11/24 09:06:18;;;;;;;25.63;20.05;;;7.90;99.90;;;;;;4960258;28;20038;-77
2022/11/24 09:08:44;;;;;;;25.20;20.05;;;7.90;99.90;;;;;;4984578;28;20487;-77
2022/11/24 09:11:14;;;;;;;27.52;21.55;;;8.00;99.90;;;;;;4967174;28;20034;-76
2022/11/24 09:13:42;;;;;;;32.40;22.90;;;8.00;99.90;;;;;;4943293;28;20042;-76
2022/11/24 09:16:12;;;;;;;29.20;21.83;;;8.00;99.90;;;;;;4962606;28;20035;-76
2022/11/24 09:18:39;;;;;;;26.42;20.90;;;8.00;99.90;;;;;;4976165;28;20487;-76
2022/11/24 09:21:16;;;;;;;24.92;21.13;;;8.00;99.90;;;;;;4981568;28;20048;-76
2022/11/24 09:23:49;;;;;;;26.10;21.95;;;8.00;99.90;;;;;;4978495;28;20047;-76
2022/11/24 09:26:20;;;;;;;24.92;22.05;;;8.00;99.90;;;;;;4964070;28;20045;-76
2022/11/24 09:28:49;;;;;;;23.10;21.02;;;8.10;99.90;;;;;;4945707;28;20050;-76
2022/11/24 09:31:16;;;;;;;28.48;21.75;;;8.20;99.90;;;;;;4965178;28;20039;-76
2022/11/24 09:33:44;;;;;;;22.15;20.15;;;8.20;99.90;;;;;;4964244;28;20046;-76
2022/11/24 09:36:12;;;;;;;23.98;21.80;;;8.30;99.90;;;;;;4971615;28;20047;-76
2022/11/24 09:38:39;;;;;;;24.30;22.08;;;8.30;99.90;;;;;;4965321;28;20049;-76
2022/11/24 09:41:27;;;;;;;26.90;24.05;;;8.30;99.90;;;;;;4968749;28;20266;-76
2022/11/24 09:44:28;;;;;;;28.38;25.60;;;8.30;99.90;;;;;;4965013;28;20050;-76
2022/11/24 09:47:23;;;;;;;26.90;24.13;;;8.30;99.90;;;;;;4962319;28;20073;-75
2022/11/24 09:49:57;;;;;;;24.88;22.92;;;8.40;99.90;;;;;;4955607;28;20591;-75
2022/11/24 09:52:38;;;;;;;26.83;24.55;;;8.30;99.90;;;;;;4969870;28;20054;-76
2022/11/24 09:55:24;;;;;;;27.50;24.90;;;8.40;99.90;;;;;;4963846;28;20116;-75
2022/11/24 09:58:02;;;;;;;29.95;27.40;;;8.40;99.90;;;;;;4979416;28;20033;-75
2022/11/24 10:00:29;;;;;;;27.50;25.35;;;8.40;99.90;;;;;;4973232;28;20161;-75
2022/11/24 10:02:56;;;;;;;29.27;26.95;;;8.50;99.90;;;;;;4979174;28;20039;-75
2022/11/24 10:05:27;;;;;;;26.58;24.42;;;8.50;99.90;;;;;;4959198;28;20614;-76
2022/11/24 10:08:34;;;;;;;26.58;24.23;;;8.50;99.90;;;;;;4963246;28;20050;-76
2022/11/24 10:11:07;;;;;;;30.55;27.85;;;8.60;99.90;;;;;;4949764;28;20133;-75
2022/11/24 10:13:40;;;;;;;29.58;26.65;;;8.70;99.90;;;;;;4982487;28;20668;-75
2022/11/24 10:16:32;;;;;;;31.58;29.20;;;8.70;99.90;;;;;;4964124;28;20408;-75
2022/11/24 10:19:11;;;;;;;28.35;25.88;;;8.70;99.90;;;;;;4978062;28;20038;-75
2022/11/24 10:22:08;;;;;;;28.27;26.13;;;8.70;99.90;;;;;;4980785;28;20132;-74
2022/11/24 10:25:00;;;;;;;29.25;27.27;;;8.80;99.90;;;;;;4962650;28;20073;-75
2022/11/24 10:27:42;;;;;;;30.85;28.63;;;8.80;99.90;;;;;;4964091;28;20046;-76
2022/11/24 10:30:21;;;;;;;30.90;28.58;;;8.70;99.90;;;;;;4961958;28;20465;-78
2022/11/24 10:32:53;;;;;;;30.38;28.08;;;8.60;99.90;;;;;;4976281;28;20424;-80
2022/11/24 10:38:20;;;;;;;30.75;27.98;;;8.50;99.90;;;;;;4984068;28;20054;-78
2022/11/24 10:41:15;;;;;;;28.77;27.05;;;8.50;99.90;;;;;;4944038;28;20050;-77
2022/11/24 10:43:42;;;;;;;32.85;30.40;;;8.60;99.90;;;;;;4967214;28;20165;-75
2022/11/24 10:46:35;;;;;;;32.90;30.05;;;8.70;99.90;;;;;;4981386;28;20042;-76
2022/11/24 10:49:05;;;;;;;34.25;31.70;;;8.70;99.90;;;;;;4979327;28;20046;-76
2022/11/24 10:51:50;;;;;;;34.47;31.60;;;8.60;99.90;;;;;;4975752;28;20054;-74
2022/11/24 10:54:22;;;;;;;28.67;26.98;;;8.70;99.90;;;;;;4960837;28;20508;-76
2022/11/24 10:56:51;;;;;;;28.33;26.48;;;8.60;99.90;;;;;;4977681;28;20050;-76
2022/11/24 10:59:28;;;;;;;29.25;27.17;;;8.60;99.90;;;;;;4966252;28;20050;-77
2022/11/24 11:01:55;;;;;;;29.73;27.33;;;8.50;99.90;;;;;;4964680;28;20057;-74
2022/11/24 11:04:27;;;;;;;30.25;27.85;;;8.40;99.90;;;;;;4978219;28;20129;-76
2022/11/24 11:07:20;;;;;;;30.67;28.00;;;8.40;99.90;;;;;;4974726;28;20463;-75
2022/11/24 11:09:47;;;;;;;29.45;27.52;;;8.40;99.90;;;;;;4981772;28;20054;-76
2022/11/24 11:12:23;;;;;;;31.38;29.25;;;8.50;99.90;;;;;;4967068;28;20049;-78
2022/11/24 11:15:29;;;;;;;28.58;26.58;;;8.50;99.90;;;;;;4980891;28;20042;-75
2022/11/24 11:18:00;;;;;;;25.02;23.35;;;8.50;99.90;;;;;;4964934;28;20046;-76
2022/11/24 11:20:30;;;;;;;26.48;23.92;;;8.40;99.90;;;;;;4973658;28;20574;-75
2022/11/24 11:23:00;;;;;;;24.77;23.17;;;8.30;99.90;;;;;;4968209;28;20052;-75
2022/11/24 11:25:34;;;;;;;21.83;20.42;;;8.10;99.90;;;;;;4981447;28;20046;-77
2022/11/24 11:28:28;;;;;;;20.70;18.97;;;8.10;99.90;;;;;;4959568;28;20060;-75
2022/11/24 11:31:04;;;;;;;22.15;20.27;;;8.10;99.90;;;;;;4974242;28;20062;-76
2022/11/24 11:34:12;;;;;;;22.75;21.02;;;8.20;99.90;;;;;;4963626;28;20049;-76
2022/11/24 11:36:52;;;;;;;23.08;21.02;;;8.20;99.90;;;;;;4963778;28;20089;-77
2022/11/24 11:39:33;;;;;;;24.05;21.95;;;8.20;99.90;;;;;;4958057;28;20500;-76
2022/11/24 11:42:32;;;;;;;23.95;21.98;;;8.20;99.90;;;;;;4963382;28;20044;-75
2022/11/24 11:45:34;;;;;;;21.88;20.42;;;8.20;99.90;;;;;;4976279;28;20031;-75
2022/11/24 11:48:01;;;;;;;25.73;23.95;;;8.20;99.90;;;;;;4979424;28;20516;-75
2022/11/24 11:50:46;;;;;;;24.23;22.55;;;8.30;99.90;;;;;;4956121;28;20101;-75
2022/11/24 11:53:45;;;;;;;25.73;24.23;;;8.40;99.90;;;;;;4949242;28;20038;-75
2022/11/24 11:56:21;;;;;;;23.85;22.15;;;8.40;99.90;;;;;;4969217;28;20523;-75
2022/11/24 11:59:00;;;;;;;27.20;24.38;;;8.40;99.90;;;;;;4961785;28;20042;-75
2022/11/24 12:01:50;;;;;;;24.42;22.35;;;8.40;99.90;;;;;;4977719;28;20042;-75
2022/11/24 12:04:42;;;;;;;29.17;26.40;;;8.40;99.90;;;;;;4975178;28;20054;-75
2022/11/24 12:07:45;;;;;;;24.63;22.75;;;8.20;99.90;;;;;;4979478;28;20035;-76
2022/11/24 12:10:35;;;;;;;23.65;21.90;;;8.20;99.90;;;;;;4952331;28;20062;-75
2022/11/24 12:13:33;;;;;;;36.05;31.67;;;8.20;99.90;;;;;;4975526;28;20133;-75
2022/11/24 12:16:17;;;;;;;24.48;22.67;;;8.30;99.90;;;;;;4960980;28;20092;-75
2022/11/24 12:19:23;;;;;;;25.40;23.35;;;8.30;99.90;;;;;;4978779;28;20042;-75
2022/11/24 12:22:20;;;;;;;26.73;24.30;;;8.20;99.90;;;;;;4963364;28;20606;-75
2022/11/24 12:24:50;;;;;;;25.88;23.70;;;8.10;99.90;;;;;;4958604;28;20301;-75
2022/11/24 12:27:33;;;;;;;27.50;24.95;;;8.10;99.90;;;;;;4960378;28;20046;-76
2022/11/24 12:30:14;;;;;;;27.38;24.88;;;8.00;99.90;;;;;;4973872;28;20042;-75
2022/11/24 12:33:08;;;;;;;28.65;25.65;;;8.00;99.90;;;;;;4962189;28;20511;-75
2022/11/24 12:35:43;;;;;;;28.77;25.73;;;8.00;99.90;;;;;;4973400;28;20046;-75
2022/11/24 12:38:27;;;;;;;26.25;23.60;;;8.00;99.90;;;;;;4963403;28;20048;-75
2022/11/24 12:41:16;;;;;;;25.15;22.55;;;7.90;99.90;;;;;;4970650;28;20041;-76
2022/11/24 12:44:10;;;;;;;24.95;20.63;;;7.80;99.90;;;;;;4955044;28;20595;-77
2022/11/24 12:46:48;;;;;;;24.30;21.33;;;7.70;99.90;;;;;;4972615;28;20042;-76
2022/11/24 12:49:52;;;;;;;24.10;20.45;;;7.60;99.90;;;;;;4953240;28;20042;-77
2022/11/24 12:52:27;;;;;;;26.35;21.85;;;7.60;99.90;;;;;;4966066;28;20666;-76
2022/11/24 12:54:54;;;;;;;28.48;21.42;;;7.60;99.90;;;;;;4980664;28;20072;-79
2022/11/24 12:57:38;;;;;;;27.33;22.42;;;7.70;99.90;;;;;;4984358;28;20050;-79
2022/11/24 13:00:34;;;;;;;30.33;22.52;;;7.70;99.90;;;;;;4969034;28;20053;-79
2022/11/24 13:03:39;;;;;;;34.92;21.33;;;7.70;99.90;;;;;;4964226;28;20048;-79
2022/11/24 13:06:26;;;;;;;38.50;22.43;;;7.80;99.90;;;;;;4904551;29;20561;-77
2022/11/24 13:08:53;;;;;;;37.45;25.70;;;7.70;99.90;;;;;;4916330;29;20298;-77